Etusivu
METAR-TAF:

METAR-TAF

Lentoasemat :

Kasane, Botswana

Leveyspiiri: 17-49S, Pituuspiiri: 025-09E, korkeus merenpinnasta: 968 m

Tämänhetkinen sää

Tämä raportti tehtiin 48 minuuttia sitten, kello 05.00 UTC
Tuuli 6 kn etelästä/kaakosta
Lämpötila 9°C
Kosteus 61%
Ilmanpaine 1025 hPa
Näkyvyys 10 km tai enemmän
ei pilviä alle 1500 m:ssä eikä cumulonimbus-pilviä

METAR: FBKE 140500Z 15006KT CAVOK 09/02 Q1025

Aika: 07:48 (05:48 UTC)

Sääennuste

Tämä raportti tehtiin 2 tuntia ja 48 minuuttia sitten, kello 03.00 UTC
Ennuste voimassa 14. päivästä klo 06 UTC - 14. päivään klo 15 UTC
Tuuli 8 kn kaakosta
Näkyvyys 10 km tai enemmän
ei pilviä alle 1500 m:ssä eikä cumulonimbus-pilviä

TAF: FBKE 140300Z 1406/1415 14008KT CAVOK

Säähavainnot ja -ennusteet yli 4000 lentoasemalta (METAR- ja TAF-raportit).

Käytössä olevat sääasemat on merkitty karttaan keltaisilla ja punaisilla pisteillä.

Aseta hiiri pisteen päälle nähdäksesi sääaseman nimen.

Klikkaa sitten nähdäksesi säähavainnot ja -ennusteet.

Kartan vaihtaminen: klikkaa mustalla rastilla varustettuja vihreitä pisteitä, niin voit zoomata sisään; viivalla varustettua vihreää pistettä, niin voit zoomata ulos tai vihreitä nuolia, niin pääset viereisille kartoille.


METAR-TAF: